createdAt,value
2018-01-18T00:00:43.292Z,2.90
2018-01-18T00:01:43.287Z,3.00
2018-01-18T00:02:43.278Z,2.50
2018-01-18T00:03:43.271Z,2.90
2018-01-18T00:04:43.263Z,2.90
2018-01-18T00:05:43.255Z,3.30
2018-01-18T00:06:43.247Z,2.70
2018-01-18T00:07:43.239Z,2.90
2018-01-18T00:08:43.229Z,2.90
2018-01-18T00:09:43.221Z,3.00
2018-01-18T00:10:43.213Z,2.90
2018-01-18T00:11:43.204Z,3.10
2018-01-18T00:12:43.201Z,3.20
2018-01-18T00:13:43.190Z,3.00
2018-01-18T00:14:43.179Z,3.00
2018-01-18T00:15:43.173Z,3.10
2018-01-18T00:16:43.165Z,2.80
2018-01-18T00:17:43.160Z,3.20
2018-01-18T00:18:43.148Z,3.10
2018-01-18T00:19:43.142Z,3.30
2018-01-18T00:20:43.134Z,3.40
2018-01-18T00:21:43.124Z,3.20
2018-01-18T00:22:43.117Z,3.70
2018-01-18T00:23:43.107Z,3.50
2018-01-18T00:24:43.098Z,3.30
2018-01-18T00:25:43.094Z,3.40
2018-01-18T00:26:43.085Z,3.30
2018-01-18T00:27:43.075Z,3.30
2018-01-18T00:28:43.069Z,3.20
2018-01-18T00:29:43.059Z,3.40
2018-01-18T00:30:43.048Z,3.60
2018-01-18T00:31:43.046Z,3.40
2018-01-18T00:32:43.037Z,3.40
2018-01-18T00:33:43.026Z,3.30
2018-01-18T00:34:43.017Z,3.50
2018-01-18T00:35:43.010Z,3.30
2018-01-18T00:36:43.002Z,3.40
2018-01-18T00:37:42.997Z,3.40
2018-01-18T00:38:42.990Z,3.80
2018-01-18T00:39:42.988Z,3.40
2018-01-18T00:40:42.968Z,3.60
2018-01-18T00:41:42.962Z,3.60
2018-01-18T00:42:42.953Z,3.90
2018-01-18T00:43:42.945Z,3.60
2018-01-18T00:44:42.934Z,3.60
2018-01-18T00:45:42.930Z,3.30
2018-01-18T00:46:42.920Z,3.60
2018-01-18T00:47:42.913Z,3.40
2018-01-18T00:48:42.906Z,3.60
2018-01-18T00:49:42.895Z,3.60
2018-01-18T00:50:42.888Z,3.50
2018-01-18T00:51:42.884Z,3.50
2018-01-18T00:52:42.874Z,3.70
2018-01-18T00:53:42.867Z,3.80
2018-01-18T00:54:42.856Z,3.50
2018-01-18T00:55:42.856Z,3.60
2018-01-18T00:56:42.839Z,3.30
2018-01-18T00:57:42.832Z,3.50
2018-01-18T00:58:42.832Z,3.80
2018-01-18T00:59:42.816Z,3.70
2018-01-18T01:00:42.809Z,3.50
2018-01-18T01:01:42.800Z,3.30
2018-01-18T01:02:42.794Z,3.90
2018-01-18T01:03:42.783Z,4.40
2018-01-18T01:04:42.776Z,3.60
2018-01-18T01:05:42.771Z,3.90
2018-01-18T01:06:42.758Z,3.80
2018-01-18T01:07:42.751Z,3.90
2018-01-18T01:08:42.745Z,3.80
2018-01-18T01:09:42.739Z,3.90
2018-01-18T01:10:42.729Z,3.90
2018-01-18T01:11:42.719Z,4.10
2018-01-18T01:12:42.710Z,4.10
2018-01-18T01:13:42.704Z,3.90
2018-01-18T01:14:42.695Z,4.00
2018-01-18T01:15:42.687Z,4.00
2018-01-18T01:16:42.682Z,4.10
2018-01-18T01:17:42.672Z,4.40
2018-01-18T01:18:42.659Z,3.80
2018-01-18T01:19:42.657Z,4.30
2018-01-18T01:20:42.650Z,3.90
2018-01-18T01:21:42.640Z,3.60
2018-01-18T01:22:42.631Z,3.80
2018-01-18T01:23:42.629Z,3.80
2018-01-18T01:24:42.614Z,3.90
2018-01-18T01:25:42.607Z,3.80
2018-01-18T01:26:42.597Z,4.10
2018-01-18T01:27:42.591Z,3.80
2018-01-18T01:28:42.583Z,4.00
2018-01-18T01:29:42.576Z,3.70
2018-01-18T01:30:42.573Z,3.70
2018-01-18T01:31:42.559Z,4.20
2018-01-18T01:32:42.552Z,3.80
2018-01-18T01:33:42.541Z,4.00
2018-01-18T01:34:42.534Z,4.50
2018-01-18T01:35:42.527Z,4.20
2018-01-18T01:36:42.520Z,4.10
2018-01-18T01:37:42.513Z,4.20
2018-01-18T01:38:42.506Z,4.50
2018-01-18T01:39:42.495Z,4.10
2018-01-18T01:40:42.486Z,4.30
2018-01-18T01:41:42.480Z,4.20
2018-01-18T01:42:42.471Z,4.10
2018-01-18T01:43:42.463Z,4.20
2018-01-18T01:44:42.462Z,4.40
2018-01-18T01:45:42.451Z,4.40
2018-01-18T01:46:42.440Z,4.30
2018-01-18T01:47:42.431Z,4.30
2018-01-18T01:48:42.425Z,4.30
2018-01-18T01:49:42.416Z,3.90
2018-01-18T01:50:42.407Z,4.30
2018-01-18T01:51:42.406Z,4.40
2018-01-18T01:52:42.391Z,3.90
2018-01-18T01:53:42.386Z,3.90
2018-01-18T01:54:42.378Z,4.00
2018-01-18T01:55:42.369Z,4.10
2018-01-18T01:56:42.358Z,4.00
2018-01-18T01:57:42.403Z,4.40
2018-01-18T01:58:42.347Z,4.30
2018-01-18T01:59:42.334Z,4.50
2018-01-18T02:00:42.329Z,4.70
2018-01-18T02:01:42.321Z,4.30
2018-01-18T02:02:42.313Z,4.00
2018-01-18T02:03:42.304Z,4.40
2018-01-18T02:04:42.298Z,4.70
2018-01-18T02:05:42.298Z,4.60
2018-01-18T02:06:42.282Z,4.10
2018-01-18T02:07:42.277Z,4.70
2018-01-18T02:08:42.265Z,4.50
2018-01-18T02:09:42.265Z,4.30
2018-01-18T02:10:42.251Z,4.10
2018-01-18T02:11:42.241Z,4.60
2018-01-18T02:12:42.241Z,4.70
2018-01-18T02:13:42.226Z,4.30
2018-01-18T02:14:42.220Z,3.90
2018-01-18T02:15:42.210Z,3.80
2018-01-18T02:16:42.203Z,4.00
2018-01-18T02:17:42.195Z,4.10
2018-01-18T02:18:42.191Z,3.90
2018-01-18T02:19:42.186Z,4.20
2018-01-18T02:20:42.170Z,3.60
2018-01-18T02:21:42.168Z,3.80
2018-01-18T02:22:42.155Z,3.90
2018-01-18T02:23:42.148Z,3.80
2018-01-18T02:24:42.140Z,3.80
2018-01-18T02:25:42.132Z,4.30
2018-01-18T02:26:42.132Z,4.30
2018-01-18T02:27:42.116Z,4.00
2018-01-18T02:28:42.109Z,4.00
2018-01-18T02:29:42.109Z,4.00
2018-01-18T02:30:42.118Z,3.80
2018-01-18T02:31:42.084Z,4.30
2018-01-18T02:32:42.077Z,4.00
2018-01-18T02:33:42.083Z,4.30
2018-01-18T02:34:42.061Z,4.10
2018-01-18T02:35:42.053Z,4.10
2018-01-18T02:36:42.052Z,4.10
2018-01-18T02:37:42.039Z,4.30
2018-01-18T02:38:42.030Z,4.60
2018-01-18T02:39:42.022Z,4.00
2018-01-18T02:40:42.021Z,4.30
2018-01-18T02:41:42.012Z,4.10
2018-01-18T02:42:41.998Z,4.10
2018-01-18T02:43:41.992Z,4.40
2018-01-18T02:44:41.984Z,4.60
2018-01-18T02:45:41.977Z,4.30
2018-01-18T02:46:41.968Z,4.40
2018-01-18T02:47:41.964Z,4.30
2018-01-18T02:48:41.952Z,4.60
2018-01-18T02:49:41.973Z,4.60
2018-01-18T02:50:41.937Z,4.80
2018-01-18T02:51:41.928Z,4.80
2018-01-18T02:52:41.921Z,4.70
2018-01-18T02:53:41.915Z,4.90
2018-01-18T02:54:41.909Z,4.90
2018-01-18T02:55:41.897Z,5.30
2018-01-18T02:56:41.890Z,5.60
2018-01-18T02:57:41.885Z,5.60
2018-01-18T02:58:41.873Z,5.30
2018-01-18T02:59:41.866Z,5.10
2018-01-18T03:00:41.859Z,5.70
2018-01-18T03:01:41.853Z,5.90
2018-01-18T03:02:41.859Z,6.40
2018-01-18T03:03:41.834Z,6.40
2018-01-18T03:04:41.829Z,6.10
2018-01-18T03:05:41.821Z,6.20
2018-01-18T03:06:41.814Z,6.50
2018-01-18T03:07:41.804Z,7.00
2018-01-18T03:08:41.797Z,6.70
2018-01-18T03:09:41.786Z,7.20
2018-01-18T03:10:41.781Z,7.50
2018-01-18T03:11:41.770Z,7.00
2018-01-18T03:12:41.770Z,7.20
2018-01-18T03:13:41.757Z,7.00
2018-01-18T03:14:41.748Z,6.90
2018-01-18T03:15:41.741Z,7.50
2018-01-18T03:16:41.732Z,6.70
2018-01-18T03:17:41.727Z,7.00
2018-01-18T03:18:41.715Z,7.20
2018-01-18T03:19:41.710Z,7.20
2018-01-18T03:20:41.706Z,7.50
2018-01-18T03:21:41.694Z,7.70
2018-01-18T03:22:41.686Z,7.40
2018-01-18T03:23:41.676Z,8.30
2018-01-18T03:24:41.671Z,7.80
2018-01-18T03:25:41.662Z,8.40
2018-01-18T03:26:41.654Z,7.80
2018-01-18T03:27:41.647Z,7.90
2018-01-18T03:28:41.665Z,8.00
2018-01-18T03:29:41.635Z,8.20
2018-01-18T03:30:41.624Z,7.50
2018-01-18T03:31:41.616Z,7.80
2018-01-18T03:32:41.608Z,7.80
2018-01-18T03:33:41.602Z,7.90
2018-01-18T03:34:41.590Z,7.70
2018-01-18T03:35:41.584Z,7.20
2018-01-18T03:36:41.577Z,7.40
2018-01-18T03:37:41.569Z,7.90
2018-01-18T03:38:41.562Z,7.40
2018-01-18T03:39:41.551Z,7.30
2018-01-18T03:40:41.545Z,7.40
2018-01-18T03:41:41.541Z,7.60
2018-01-18T03:42:41.529Z,7.60
2018-01-18T03:43:41.522Z,7.60
2018-01-18T03:44:41.514Z,8.10
2018-01-18T03:45:41.508Z,7.90
2018-01-18T03:46:41.493Z,8.10
2018-01-18T03:47:41.495Z,8.20
2018-01-18T03:48:41.482Z,8.30
2018-01-18T03:49:41.476Z,8.00
2018-01-18T03:50:41.610Z,7.90
2018-01-18T03:51:41.455Z,7.90
2018-01-18T03:52:41.451Z,8.70
2018-01-18T03:53:41.443Z,8.30
2018-01-18T03:54:41.436Z,8.30
2018-01-18T03:55:41.428Z,8.20
2018-01-18T03:56:41.419Z,8.00
2018-01-18T03:57:41.412Z,8.50
2018-01-18T03:58:41.404Z,8.30
2018-01-18T03:59:41.396Z,7.80
2018-01-18T04:00:41.390Z,8.00
2018-01-18T04:01:41.385Z,8.60
2018-01-18T04:02:41.373Z,8.30
2018-01-18T04:03:41.362Z,7.90
2018-01-18T04:04:41.361Z,8.70
2018-01-18T04:05:41.350Z,8.00
2018-01-18T04:06:41.342Z,8.40
2018-01-18T04:07:41.338Z,8.10
2018-01-18T04:08:41.327Z,8.40
2018-01-18T04:09:41.320Z,8.30
2018-01-18T04:10:41.310Z,8.30
2018-01-18T04:11:41.304Z,8.30
2018-01-18T04:12:41.294Z,8.10
2018-01-18T04:13:41.285Z,8.50
2018-01-18T04:14:41.285Z,8.30
2018-01-18T04:15:41.268Z,8.70
2018-01-18T04:16:41.261Z,8.70
2018-01-18T04:17:41.255Z,8.30
2018-01-18T04:18:41.247Z,8.20
2018-01-18T04:19:41.239Z,7.90
2018-01-18T04:20:41.239Z,8.30
2018-01-18T04:21:41.223Z,8.30
2018-01-18T04:22:41.216Z,8.40
2018-01-18T04:23:41.207Z,8.00
2018-01-18T04:24:41.200Z,8.20
2018-01-18T04:25:41.192Z,8.10
2018-01-18T04:26:41.182Z,7.90
2018-01-18T04:27:41.175Z,8.30
2018-01-18T04:28:41.169Z,8.30
2018-01-18T04:29:41.163Z,8.20
2018-01-18T04:30:41.152Z,8.50
2018-01-18T04:31:41.145Z,8.20
2018-01-18T04:32:41.137Z,8.10
2018-01-18T04:33:41.129Z,7.90
2018-01-18T04:34:41.119Z,8.20
2018-01-18T04:35:41.108Z,8.30
2018-01-18T04:36:41.108Z,7.70
2018-01-18T04:37:41.108Z,7.80
2018-01-18T04:38:41.090Z,8.10
2018-01-18T04:39:41.083Z,7.90
2018-01-18T04:40:41.078Z,8.00
2018-01-18T04:41:41.066Z,7.20
2018-01-18T04:42:41.059Z,7.60
2018-01-18T04:43:41.051Z,7.70
2018-01-18T04:44:41.043Z,7.30
2018-01-18T04:45:41.038Z,7.30
2018-01-18T04:46:41.028Z,7.50
2018-01-18T04:47:41.027Z,7.70
2018-01-18T04:48:41.015Z,7.80
2018-01-18T04:49:41.003Z,7.10
2018-01-18T04:50:40.995Z,7.00
2018-01-18T04:51:40.998Z,7.70
2018-01-18T04:52:40.982Z,7.00
2018-01-18T04:53:40.973Z,7.10
2018-01-18T04:54:40.972Z,6.80
2018-01-18T04:55:40.957Z,6.80
2018-01-18T04:56:40.954Z,6.70
2018-01-18T04:57:40.941Z,7.00
2018-01-18T04:58:40.933Z,6.40
2018-01-18T04:59:40.926Z,6.50
2018-01-18T05:00:40.919Z,5.90
2018-01-18T05:01:40.913Z,6.30
2018-01-18T05:02:40.906Z,6.30
2018-01-18T05:03:40.900Z,5.90
2018-01-18T05:04:40.884Z,6.30
2018-01-18T05:05:40.878Z,6.30
2018-01-18T05:06:40.871Z,6.10
2018-01-18T05:07:40.863Z,6.20
2018-01-18T05:08:40.859Z,6.30
2018-01-18T05:09:40.852Z,6.00
2018-01-18T05:10:40.841Z,6.00
2018-01-18T05:11:40.832Z,6.20
2018-01-18T05:12:40.825Z,6.20
2018-01-18T05:13:40.823Z,6.10
2018-01-18T05:14:40.808Z,5.60
2018-01-18T05:15:40.804Z,5.60
2018-01-18T05:16:40.795Z,5.90
2018-01-18T05:17:40.790Z,5.70
2018-01-18T05:18:40.776Z,5.80
2018-01-18T05:19:40.769Z,5.90
2018-01-18T05:20:40.764Z,5.40
2018-01-18T05:21:40.756Z,5.50
2018-01-18T05:22:40.748Z,5.50
2018-01-18T05:23:40.738Z,5.60
2018-01-18T05:24:40.735Z,5.60
2018-01-18T05:25:40.718Z,5.30
2018-01-18T05:26:40.716Z,5.20
2018-01-18T05:27:40.705Z,5.30
2018-01-18T05:28:40.700Z,5.30
2018-01-18T05:29:40.692Z,5.10
2018-01-18T05:30:40.684Z,5.30
2018-01-18T05:31:40.682Z,5.40
2018-01-18T05:32:40.665Z,4.90
2018-01-18T05:33:40.663Z,5.10
2018-01-18T05:34:40.653Z,4.90
2018-01-18T05:35:40.645Z,4.80
2018-01-18T05:36:40.638Z,5.00
2018-01-18T05:37:40.632Z,5.10
2018-01-18T05:38:40.623Z,5.00
2018-01-18T05:39:40.615Z,5.00
2018-01-18T05:40:40.606Z,4.90
2018-01-18T05:41:40.599Z,4.90
2018-01-18T05:42:40.592Z,5.10
2018-01-18T05:43:40.584Z,4.60
2018-01-18T05:44:40.574Z,5.00
2018-01-18T05:45:40.567Z,5.00
2018-01-18T05:46:40.568Z,4.80
2018-01-18T05:47:40.551Z,5.10
2018-01-18T05:48:40.544Z,5.10
2018-01-18T05:49:40.536Z,5.20
2018-01-18T05:50:40.528Z,4.90
2018-01-18T05:51:40.519Z,4.90
2018-01-18T05:52:40.512Z,5.20
2018-01-18T05:53:40.501Z,5.10
2018-01-18T05:54:40.495Z,5.20
2018-01-18T05:55:40.488Z,4.90
2018-01-18T05:56:40.478Z,5.30
2018-01-18T05:57:40.473Z,4.90
2018-01-18T05:58:40.464Z,5.50
2018-01-18T05:59:40.455Z,5.50
2018-01-18T06:00:40.447Z,4.90
2018-01-18T06:01:40.443Z,5.00
2018-01-18T06:02:40.433Z,5.30
2018-01-18T06:03:40.424Z,5.10
2018-01-18T06:04:40.441Z,5.60
2018-01-18T06:05:40.411Z,5.60
2018-01-18T06:06:40.401Z,5.30
2018-01-18T06:07:40.390Z,5.50
2018-01-18T06:08:40.387Z,5.60
2018-01-18T06:09:40.378Z,5.30
2018-01-18T06:10:40.369Z,5.40
2018-01-18T06:11:40.362Z,5.10
2018-01-18T06:12:40.354Z,5.60
2018-01-18T06:13:40.355Z,5.60
2018-01-18T06:14:40.332Z,6.00
2018-01-18T06:15:40.328Z,5.20
2018-01-18T06:16:40.320Z,5.40
2018-01-18T06:17:40.313Z,5.60
2018-01-18T06:18:40.304Z,5.40
2018-01-18T06:19:40.296Z,5.80
2018-01-18T06:20:40.290Z,6.20
2018-01-18T06:21:40.277Z,6.30
2018-01-18T06:22:40.278Z,6.00
2018-01-18T06:23:40.264Z,5.90
2018-01-18T06:24:40.257Z,5.90
2018-01-18T06:25:40.267Z,6.00
2018-01-18T06:26:40.234Z,5.90
2018-01-18T06:27:40.232Z,5.90
2018-01-18T06:28:40.218Z,5.80
2018-01-18T06:29:40.217Z,5.40
2018-01-18T06:30:40.203Z,5.50
2018-01-18T06:31:40.200Z,5.40
2018-01-18T06:32:40.199Z,6.00
2018-01-18T06:33:40.183Z,5.20
2018-01-18T06:34:40.175Z,5.80
2018-01-18T06:35:40.163Z,5.50
2018-01-18T06:36:40.159Z,5.40
2018-01-18T06:37:40.150Z,5.50
2018-01-18T06:38:40.141Z,5.40
2018-01-18T06:39:40.138Z,5.80
2018-01-18T06:40:40.128Z,5.40
2018-01-18T06:41:40.118Z,5.50
2018-01-18T06:42:40.106Z,5.40
2018-01-18T06:43:40.101Z,5.50
2018-01-18T06:44:40.092Z,5.70
2018-01-18T06:45:40.088Z,5.50
2018-01-18T06:46:40.083Z,5.40
2018-01-18T06:47:40.066Z,5.50
2018-01-18T06:48:40.056Z,5.70
2018-01-18T06:49:40.052Z,5.30
2018-01-18T06:50:40.041Z,5.10
2018-01-18T06:51:40.034Z,5.40
2018-01-18T06:52:40.027Z,5.30
2018-01-18T06:53:40.024Z,5.40
2018-01-18T06:54:40.007Z,5.50
2018-01-18T06:55:40.001Z,5.10
2018-01-18T06:56:39.992Z,5.10
2018-01-18T06:57:39.984Z,5.30
2018-01-18T06:58:39.977Z,5.00
2018-01-18T06:59:39.968Z,4.90
2018-01-18T07:00:39.959Z,4.90
2018-01-18T07:01:39.950Z,4.90
2018-01-18T07:02:39.936Z,5.30
2018-01-18T07:03:39.935Z,5.00
2018-01-18T07:04:39.925Z,4.90
2018-01-18T07:05:39.919Z,4.70
2018-01-18T07:06:39.910Z,5.70
2018-01-18T07:07:39.901Z,4.80
2018-01-18T07:08:39.894Z,4.90
2018-01-18T07:09:39.881Z,4.60
2018-01-18T07:10:39.875Z,4.70
2018-01-18T07:11:39.871Z,4.80
2018-01-18T07:12:39.860Z,4.80
2018-01-18T07:13:39.853Z,4.70
2018-01-18T07:14:39.841Z,4.40
2018-01-18T07:15:39.833Z,4.80
2018-01-18T07:16:39.824Z,5.00
2018-01-18T07:17:39.819Z,5.10
2018-01-18T07:18:39.810Z,5.20
2018-01-18T07:19:39.802Z,5.00
2018-01-18T07:20:39.800Z,4.70
2018-01-18T07:21:39.799Z,5.10
2018-01-18T07:22:39.778Z,4.90
2018-01-18T07:23:39.765Z,4.60
2018-01-18T07:24:39.760Z,5.00
2018-01-18T07:25:39.752Z,4.80
2018-01-18T07:26:39.743Z,4.60
2018-01-18T07:27:39.745Z,4.90
2018-01-18T07:28:39.727Z,4.60
2018-01-18T07:29:39.721Z,4.60
2018-01-18T07:30:39.708Z,4.80
2018-01-18T07:31:39.701Z,4.90
2018-01-18T07:32:39.692Z,5.20
2018-01-18T07:33:39.686Z,4.90
2018-01-18T07:34:39.678Z,5.10
2018-01-18T07:35:39.669Z,4.70
2018-01-18T07:36:39.660Z,5.20
2018-01-18T07:37:39.653Z,5.00
2018-01-18T07:38:39.644Z,5.40
2018-01-18T07:39:39.639Z,5.10
2018-01-18T07:40:39.626Z,5.30
2018-01-18T07:41:39.617Z,5.20
2018-01-18T07:42:39.612Z,5.30
2018-01-18T07:43:39.597Z,5.50
2018-01-18T07:44:39.590Z,5.50
2018-01-18T07:45:39.588Z,5.30
2018-01-18T07:46:39.573Z,4.90
2018-01-18T07:47:39.569Z,5.30
2018-01-18T07:48:39.561Z,5.30
2018-01-18T07:49:39.552Z,5.40
2018-01-18T07:50:39.543Z,5.40
2018-01-18T07:51:39.532Z,5.30
2018-01-18T07:52:39.530Z,5.00
2018-01-18T07:53:39.521Z,5.40
2018-01-18T07:54:39.511Z,5.30
2018-01-18T07:55:39.506Z,5.20
2018-01-18T07:56:39.496Z,5.20
2018-01-18T07:57:39.486Z,5.00
2018-01-18T07:58:39.478Z,5.60
2018-01-18T07:59:39.471Z,4.90
2018-01-18T08:00:39.462Z,5.00
2018-01-18T08:01:39.466Z,4.90
2018-01-18T08:02:39.445Z,4.80
2018-01-18T08:03:39.438Z,4.80
2018-01-18T08:04:39.428Z,5.10
2018-01-18T08:05:39.423Z,5.60
2018-01-18T08:06:39.413Z,4.50
2018-01-18T08:07:39.400Z,5.00
2018-01-18T08:08:39.403Z,4.70
2018-01-18T08:09:39.384Z,4.70
2018-01-18T08:10:39.379Z,4.70
2018-01-18T08:11:39.373Z,4.50
2018-01-18T08:12:39.365Z,4.50
2018-01-18T08:13:39.357Z,4.00
2018-01-18T08:14:39.347Z,4.60
2018-01-18T08:15:39.342Z,4.60
2018-01-18T08:16:39.331Z,4.70
2018-01-18T08:17:39.324Z,4.50
2018-01-18T08:18:39.315Z,4.40
2018-01-18T08:19:39.308Z,4.30
2018-01-18T08:20:39.296Z,4.20
2018-01-18T08:21:39.292Z,4.30
2018-01-18T08:22:39.283Z,4.50
2018-01-18T08:23:39.274Z,4.70
2018-01-18T08:24:39.269Z,4.40
2018-01-18T08:25:39.260Z,4.30
2018-01-18T08:26:39.255Z,4.20
2018-01-18T08:27:39.243Z,4.20
2018-01-18T08:28:39.239Z,4.10
2018-01-18T08:29:39.227Z,4.10
2018-01-18T08:30:39.219Z,4.10
2018-01-18T08:31:39.210Z,4.00
2018-01-18T08:32:39.201Z,4.00
2018-01-18T08:33:39.197Z,4.40
2018-01-18T08:34:39.186Z,4.20
2018-01-18T08:35:39.179Z,3.80
2018-01-18T08:36:39.173Z,4.10
2018-01-18T08:37:39.160Z,4.10
2018-01-18T08:38:39.153Z,3.90
2018-01-18T08:39:39.149Z,4.10
2018-01-18T08:40:39.138Z,3.90
2018-01-18T08:41:39.130Z,3.80
2018-01-18T08:42:39.125Z,4.10
2018-01-18T08:43:39.116Z,3.80
2018-01-18T08:44:39.113Z,4.10
2018-01-18T08:45:39.100Z,3.70
2018-01-18T08:46:39.117Z,3.80
2018-01-18T08:47:39.083Z,4.20
2018-01-18T08:48:39.075Z,4.10
2018-01-18T08:49:39.067Z,4.10
2018-01-18T08:50:39.060Z,3.90
2018-01-18T08:51:39.051Z,3.80
2018-01-18T08:52:39.044Z,3.70
2018-01-18T08:53:39.038Z,3.40
2018-01-18T08:54:39.028Z,3.60
2018-01-18T08:55:39.020Z,3.70
2018-01-18T08:56:39.014Z,3.70
2018-01-18T08:57:39.005Z,4.00
2018-01-18T08:58:39.046Z,3.70
2018-01-18T08:59:38.988Z,3.60
2018-01-18T09:00:38.980Z,3.90
2018-01-18T09:01:38.974Z,3.50
2018-01-18T09:02:38.966Z,3.60
2018-01-18T09:03:38.962Z,3.60
2018-01-18T09:04:39.002Z,3.70
2018-01-18T09:05:38.943Z,3.80
2018-01-18T09:06:38.935Z,3.60
2018-01-18T09:07:38.927Z,3.60
2018-01-18T09:08:38.920Z,3.80
2018-01-18T09:09:38.913Z,3.70
2018-01-18T09:10:38.905Z,3.70
2018-01-18T09:11:38.896Z,3.60
2018-01-18T09:12:38.890Z,3.50
2018-01-18T09:13:38.882Z,3.50
2018-01-18T09:14:38.871Z,4.00
2018-01-18T09:15:38.873Z,3.50
2018-01-18T09:16:38.858Z,3.50
2018-01-18T09:17:38.855Z,3.50
2018-01-18T09:18:38.842Z,3.60
2018-01-18T09:19:38.835Z,3.50
2018-01-18T09:20:38.829Z,3.80
2018-01-18T09:21:38.818Z,3.60
2018-01-18T09:22:38.817Z,3.30
2018-01-18T09:23:38.805Z,3.20
2018-01-18T09:24:38.800Z,3.50
2018-01-18T09:25:38.794Z,3.50
2018-01-18T09:26:38.781Z,3.80
2018-01-18T09:27:38.768Z,3.60
2018-01-18T09:28:38.763Z,3.70
2018-01-18T09:29:38.759Z,3.50
2018-01-18T09:30:38.752Z,3.60
2018-01-18T09:31:38.743Z,3.30
2018-01-18T09:32:38.738Z,3.40
2018-01-18T09:33:38.726Z,3.30
2018-01-18T09:34:38.719Z,3.50
2018-01-18T09:35:38.712Z,3.70
2018-01-18T09:36:38.708Z,3.60
2018-01-18T09:37:38.700Z,4.10
2018-01-18T09:38:38.688Z,3.80
2018-01-18T09:39:38.684Z,5.60
2018-01-18T09:40:38.672Z,3.80
2018-01-18T09:41:38.665Z,4.80
2018-01-18T09:42:38.653Z,5.70
2018-01-18T09:43:38.651Z,4.70
2018-01-18T09:44:38.639Z,5.90
2018-01-18T09:45:38.634Z,4.70
2018-01-18T09:46:38.628Z,5.00
2018-01-18T09:47:38.617Z,3.70
2018-01-18T09:48:38.609Z,3.80
2018-01-18T09:49:38.598Z,3.70
2018-01-18T09:50:38.592Z,3.70
2018-01-18T09:51:38.592Z,4.10
2018-01-18T09:52:38.581Z,4.20
2018-01-18T09:53:38.571Z,3.80
2018-01-18T09:54:38.566Z,3.90
2018-01-18T09:55:38.554Z,4.50
2018-01-18T09:56:38.544Z,4.40
2018-01-18T09:57:38.537Z,4.40
2018-01-18T09:58:38.529Z,4.40
2018-01-18T09:59:38.527Z,4.40
2018-01-18T10:00:38.514Z,4.70
2018-01-18T10:01:38.506Z,3.90
2018-01-18T10:02:38.496Z,3.40
2018-01-18T10:03:38.490Z,3.50
2018-01-18T10:04:38.487Z,4.10
2018-01-18T10:05:38.474Z,4.70
2018-01-18T10:06:38.469Z,4.40
2018-01-18T10:07:38.459Z,5.20
2018-01-18T10:08:38.448Z,5.10
2018-01-18T10:09:38.440Z,4.80
2018-01-18T10:10:38.433Z,6.30
2018-01-18T10:11:38.424Z,7.30
2018-01-18T10:12:38.417Z,7.10
2018-01-18T10:13:38.412Z,7.20
2018-01-18T10:14:38.404Z,6.40
2018-01-18T10:15:38.396Z,5.70
2018-01-18T10:16:38.381Z,6.20
2018-01-18T10:17:38.374Z,4.80
2018-01-18T10:18:38.365Z,5.40
2018-01-18T10:19:38.357Z,4.20
2018-01-18T10:20:38.350Z,4.60
2018-01-18T10:21:38.342Z,5.00
2018-01-18T10:22:38.333Z,3.80
2018-01-18T10:23:38.325Z,3.60
2018-01-18T10:24:38.318Z,4.00
2018-01-18T10:25:38.307Z,3.70
2018-01-18T10:26:38.339Z,3.80
2018-01-18T10:27:38.296Z,3.40
2018-01-18T10:28:38.284Z,3.60
2018-01-18T10:29:38.278Z,3.80
2018-01-18T10:30:38.266Z,3.60
2018-01-18T10:31:38.257Z,3.80
2018-01-18T10:32:38.247Z,3.70
2018-01-18T10:33:38.242Z,3.60
2018-01-18T10:34:38.233Z,4.00
2018-01-18T10:35:38.225Z,3.60
2018-01-18T10:36:38.215Z,3.50
2018-01-18T10:37:38.203Z,3.60
2018-01-18T10:38:38.197Z,3.40
2018-01-18T10:39:38.189Z,3.40
2018-01-18T10:40:38.182Z,3.30
2018-01-18T10:41:38.173Z,3.40
2018-01-18T10:42:38.166Z,3.60
2018-01-18T10:43:38.153Z,4.00
2018-01-18T10:44:38.182Z,4.10
2018-01-18T10:45:38.138Z,4.80
2018-01-18T10:46:38.128Z,4.80
2018-01-18T10:47:38.120Z,5.50
2018-01-18T10:48:38.112Z,4.60
2018-01-18T10:49:38.103Z,5.10
2018-01-18T10:50:38.095Z,5.00
2018-01-18T10:51:38.084Z,4.20
2018-01-18T10:52:38.076Z,4.10
2018-01-18T10:53:38.069Z,4.00
2018-01-18T10:54:38.058Z,5.20
2018-01-18T10:55:38.051Z,4.60
2018-01-18T10:56:38.039Z,5.00
2018-01-18T10:57:38.031Z,5.80
2018-01-18T10:58:38.025Z,5.40
2018-01-18T10:59:38.015Z,5.20
2018-01-18T11:00:38.010Z,4.70
2018-01-18T11:01:38.006Z,4.40
2018-01-18T11:02:37.999Z,4.60
2018-01-18T11:03:37.978Z,4.70
2018-01-18T11:04:37.969Z,4.20
2018-01-18T11:05:37.964Z,4.60
2018-01-18T11:06:37.956Z,4.60
2018-01-18T11:07:37.944Z,4.90
2018-01-18T11:08:37.933Z,5.60
2018-01-18T11:09:37.928Z,5.50
2018-01-18T11:10:37.913Z,4.50
2018-01-18T11:11:37.909Z,3.60
2018-01-18T11:12:37.901Z,4.00
2018-01-18T11:13:37.892Z,3.70
2018-01-18T11:14:37.885Z,3.60
2018-01-18T11:15:37.875Z,3.90
2018-01-18T11:16:37.865Z,4.40
2018-01-18T11:17:37.859Z,4.60
2018-01-18T11:18:37.846Z,4.80
2018-01-18T11:19:37.838Z,5.20
2018-01-18T11:20:37.829Z,5.20
2018-01-18T11:21:37.821Z,5.20
2018-01-18T11:22:37.813Z,5.30
2018-01-18T11:23:37.803Z,5.90
2018-01-18T11:24:37.795Z,6.40
2018-01-18T11:25:37.782Z,6.60
2018-01-18T11:26:37.776Z,5.90
2018-01-18T11:27:37.767Z,6.60
2018-01-18T11:28:37.758Z,5.40
2018-01-18T11:29:37.750Z,6.00
2018-01-18T11:30:37.754Z,5.70
2018-01-18T11:31:37.749Z,6.00
2018-01-18T11:32:37.721Z,6.00
2018-01-18T11:33:37.717Z,6.70
2018-01-18T11:34:37.704Z,7.00
2018-01-18T11:35:37.696Z,7.00
2018-01-18T11:36:37.687Z,7.30
2018-01-18T11:37:37.677Z,7.40
2018-01-18T11:38:37.668Z,8.90
2018-01-18T11:39:37.660Z,8.80
2018-01-18T11:40:37.651Z,8.60
2018-01-18T11:41:37.647Z,9.90
2018-01-18T11:42:37.632Z,9.60
2018-01-18T11:43:37.640Z,9.90
2018-01-18T11:44:37.630Z,9.70
2018-01-18T11:45:37.606Z,9.60
2018-01-18T11:46:37.607Z,9.80
2018-01-18T11:47:37.588Z,10.10
2018-01-18T11:48:37.583Z,8.30
2018-01-18T11:49:37.571Z,8.70
2018-01-18T11:50:37.560Z,6.80
2018-01-18T11:51:37.560Z,7.20
2018-01-18T11:52:37.541Z,7.40
2018-01-18T11:53:37.534Z,8.00
2018-01-18T11:54:37.526Z,7.10
2018-01-18T11:55:37.514Z,8.20
2018-01-18T11:56:37.507Z,8.60
2018-01-18T11:57:37.498Z,8.90
2018-01-18T11:58:37.489Z,6.90
2018-01-18T11:59:37.483Z,7.30
2018-01-18T12:00:37.476Z,6.00
2018-01-18T12:01:37.468Z,6.70
2018-01-18T12:02:37.452Z,6.70
2018-01-18T12:03:37.444Z,5.60
2018-01-18T12:04:37.437Z,6.80
2018-01-18T12:05:37.423Z,6.30
2018-01-18T12:06:37.417Z,5.80
2018-01-18T12:07:37.409Z,6.70
2018-01-18T12:08:37.401Z,5.80
2018-01-18T12:09:37.392Z,5.50
2018-01-18T12:10:37.382Z,4.40
2018-01-18T12:11:37.374Z,4.80
2018-01-18T12:12:37.364Z,4.50
2018-01-18T12:13:37.357Z,4.60
2018-01-18T12:14:37.348Z,4.20
2018-01-18T12:15:37.339Z,4.60
2018-01-18T12:16:37.330Z,4.90
2018-01-18T12:17:37.320Z,4.70
2018-01-18T12:18:37.322Z,4.20
2018-01-18T12:19:37.303Z,4.40
2018-01-18T12:20:37.294Z,4.20
2018-01-18T12:21:37.286Z,5.10
2018-01-18T12:22:37.277Z,4.30
2018-01-18T12:23:37.271Z,4.10
2018-01-18T12:24:37.261Z,4.40
2018-01-18T12:25:37.253Z,4.80
2018-01-18T12:26:37.240Z,3.40
2018-01-18T12:27:37.234Z,3.50
2018-01-18T12:28:37.226Z,4.10
2018-01-18T12:29:37.221Z,3.60
2018-01-18T12:30:37.209Z,3.80
2018-01-18T12:31:37.201Z,4.10
2018-01-18T12:32:37.193Z,4.30
2018-01-18T12:33:37.183Z,3.10
2018-01-18T12:34:37.176Z,4.20
2018-01-18T12:35:37.166Z,3.50
2018-01-18T12:36:37.159Z,3.00
2018-01-18T12:37:37.153Z,2.80
2018-01-18T12:38:37.140Z,2.90
2018-01-18T12:39:37.134Z,3.30
2018-01-18T12:40:37.123Z,2.70
2018-01-18T12:41:37.126Z,2.50
2018-01-18T12:42:37.108Z,2.50
2018-01-18T12:43:37.096Z,2.90
2018-01-18T12:44:37.094Z,2.70
2018-01-18T12:45:37.084Z,2.80
2018-01-18T12:46:37.079Z,2.50
2018-01-18T12:47:37.064Z,2.50
2018-01-18T12:48:37.062Z,2.60
2018-01-18T12:49:37.050Z,2.70
2018-01-18T12:50:37.042Z,2.70
2018-01-18T12:51:37.035Z,2.80
2018-01-18T12:52:37.030Z,2.60
2018-01-18T12:53:37.021Z,2.40
2018-01-18T12:54:37.008Z,2.60
2018-01-18T12:55:37.003Z,2.70
2018-01-18T12:56:36.991Z,2.60
2018-01-18T12:57:36.987Z,2.70
2018-01-18T12:58:36.978Z,2.30
2018-01-18T12:59:36.969Z,2.50
2018-01-18T13:00:37.011Z,2.90
2018-01-18T13:01:36.955Z,2.70
2018-01-18T13:02:36.945Z,2.60
2018-01-18T13:03:36.937Z,2.40
2018-01-18T13:04:36.930Z,2.40
2018-01-18T13:05:36.922Z,2.40
2018-01-18T13:06:36.915Z,2.20
2018-01-18T13:07:36.904Z,2.40
2018-01-18T13:08:36.897Z,2.00
2018-01-18T13:09:36.894Z,2.40
2018-01-18T13:10:36.880Z,2.20
2018-01-18T13:11:36.874Z,2.20
2018-01-18T13:12:36.867Z,2.60
2018-01-18T13:13:36.860Z,2.30
2018-01-18T13:14:36.851Z,2.20
2018-01-18T13:15:36.842Z,2.10
2018-01-18T13:16:36.835Z,2.40
2018-01-18T13:17:36.828Z,2.60
2018-01-18T13:18:36.818Z,2.40